createdAt,value
2019-03-19T00:02:15.945Z,9.83
2019-03-19T00:04:44.213Z,11.97
2019-03-19T00:07:12.847Z,10.35
2019-03-19T00:09:41.095Z,9.58
2019-03-19T00:12:09.546Z,9.28
2019-03-19T00:14:37.875Z,7.92
2019-03-19T00:17:06.594Z,7.87
2019-03-19T00:19:35.174Z,9.45
2019-03-19T00:22:03.468Z,7.72
2019-03-19T00:24:31.990Z,9.93
2019-03-19T00:27:00.525Z,5.70
2019-03-19T00:29:29.011Z,15.55
2019-03-19T00:31:57.332Z,11.30
2019-03-19T00:34:26.143Z,6.78
2019-03-19T00:36:54.641Z,9.65
2019-03-19T00:39:23.261Z,14.75
2019-03-19T00:41:51.836Z,8.48
2019-03-19T00:44:20.538Z,11.55
2019-03-19T00:46:49.229Z,7.90
2019-03-19T00:49:18.003Z,12.03
2019-03-19T00:51:49.037Z,10.23
2019-03-19T00:54:17.513Z,16.32
2019-03-19T00:56:48.859Z,10.32
2019-03-19T00:59:17.645Z,12.20
2019-03-19T01:01:46.320Z,11.15
2019-03-19T01:04:14.611Z,10.25
2019-03-19T01:06:43.132Z,17.95
2019-03-19T01:09:11.493Z,18.70
2019-03-19T01:11:40.090Z,18.10
2019-03-19T01:14:08.361Z,15.58
2019-03-19T01:16:36.746Z,15.28
2019-03-19T01:19:05.017Z,15.13
2019-03-19T01:21:33.478Z,19.07
2019-03-19T01:24:02.144Z,25.85
2019-03-19T01:26:31.178Z,21.90
2019-03-19T01:28:59.532Z,19.27
2019-03-19T01:31:27.791Z,19.42
2019-03-19T01:33:56.509Z,16.48
2019-03-19T01:36:24.909Z,21.52
2019-03-19T01:38:53.280Z,17.25
2019-03-19T01:41:21.749Z,30.23
2019-03-19T01:43:50.093Z,32.67
2019-03-19T01:46:18.354Z,32.45
2019-03-19T01:48:47.144Z,31.57
2019-03-19T01:51:15.698Z,18.37
2019-03-19T01:53:43.979Z,20.15
2019-03-19T01:56:12.249Z,25.55
2019-03-19T01:58:41.358Z,24.92
2019-03-19T02:01:09.677Z,24.45
2019-03-19T02:03:59.347Z,20.88
2019-03-19T02:06:27.726Z,20.45
2019-03-19T02:08:56.352Z,20.23
2019-03-19T02:11:24.811Z,17.50
2019-03-19T02:13:53.092Z,13.75
2019-03-19T02:16:21.422Z,12.13
2019-03-19T02:18:50.439Z,11.57
2019-03-19T02:21:20.815Z,13.48
2019-03-19T02:23:49.260Z,17.90
2019-03-19T02:26:17.587Z,9.18
2019-03-19T02:28:46.371Z,8.38
2019-03-19T02:31:14.622Z,12.33
2019-03-19T02:33:43.193Z,7.22
2019-03-19T02:36:11.552Z,9.93
2019-03-19T02:38:39.909Z,11.53
2019-03-19T02:41:08.237Z,12.13
2019-03-19T02:43:36.854Z,13.53
2019-03-19T02:46:05.095Z,11.75
2019-03-19T02:48:33.560Z,8.65
2019-03-19T02:51:02.004Z,8.20
2019-03-19T02:53:30.595Z,8.53
2019-03-19T02:55:59.330Z,6.80
2019-03-19T02:58:27.751Z,11.93
2019-03-19T03:00:56.853Z,9.43
2019-03-19T03:03:25.550Z,7.62
2019-03-19T03:05:53.991Z,8.28
2019-03-19T03:08:22.326Z,11.25
2019-03-19T03:10:50.623Z,20.65
2019-03-19T03:13:19.184Z,13.13
2019-03-19T03:15:48.016Z,17.17
2019-03-19T03:18:16.767Z,13.55
2019-03-19T03:20:45.290Z,15.75
2019-03-19T03:23:13.714Z,10.78
2019-03-19T03:25:42.066Z,8.55
2019-03-19T03:28:10.571Z,11.93
2019-03-19T03:30:38.945Z,10.75
2019-03-19T03:33:07.437Z,7.95
2019-03-19T03:35:36.473Z,7.97
2019-03-19T03:38:05.232Z,9.00
2019-03-19T03:40:33.702Z,11.35
2019-03-19T03:43:02.384Z,13.43
2019-03-19T03:45:30.867Z,11.60
2019-03-19T03:47:59.252Z,8.35
2019-03-19T03:50:28.200Z,9.40
2019-03-19T03:52:56.519Z,8.03
2019-03-19T03:55:25.153Z,9.00
2019-03-19T03:57:53.955Z,9.50
2019-03-19T04:00:23.672Z,13.37
2019-03-19T04:02:52.014Z,8.20
2019-03-19T04:05:20.372Z,8.10
2019-03-19T04:07:49.324Z,9.00
2019-03-19T04:10:18.553Z,7.57
2019-03-19T04:12:47.294Z,11.43
2019-03-19T04:15:22.799Z,18.00
2019-03-19T04:17:51.266Z,6.72
2019-03-19T04:20:19.594Z,11.90
2019-03-19T04:22:47.962Z,8.78
2019-03-19T04:25:16.363Z,7.78
2019-03-19T04:27:44.819Z,14.00
2019-03-19T04:30:20.767Z,10.35
2019-03-19T04:32:49.134Z,9.55
2019-03-19T04:35:17.794Z,13.62
2019-03-19T04:37:46.212Z,18.20
2019-03-19T04:40:15.378Z,12.80
2019-03-19T04:42:45.367Z,13.90
2019-03-19T04:45:14.869Z,17.07
2019-03-19T04:47:43.205Z,23.50
2019-03-19T04:50:12.548Z,21.82
2019-03-19T04:52:40.970Z,16.52
2019-03-19T04:55:16.587Z,23.62
2019-03-19T04:57:45.277Z,19.52
2019-03-19T05:00:16.180Z,17.25
2019-03-19T05:03:01.010Z,19.55
2019-03-19T05:05:52.662Z,26.07
2019-03-19T05:08:22.905Z,20.70
2019-03-19T05:10:58.466Z,19.57
2019-03-19T05:13:35.234Z,28.52
2019-03-19T05:16:03.010Z,24.00
2019-03-19T05:18:31.611Z,22.35
2019-03-19T05:21:00.522Z,21.37
2019-03-19T05:23:29.124Z,19.65
2019-03-19T05:25:57.513Z,24.15
2019-03-19T05:28:25.964Z,18.50
2019-03-19T05:31:00.692Z,27.50
2019-03-19T05:33:28.694Z,24.18
2019-03-19T05:36:00.225Z,26.80
2019-03-19T05:38:32.066Z,26.48
2019-03-19T05:41:00.620Z,25.45
2019-03-19T05:43:29.114Z,23.05
2019-03-19T05:45:57.815Z,19.60
2019-03-19T05:48:26.189Z,17.45
2019-03-19T05:50:54.635Z,41.98
2019-03-19T05:53:22.974Z,18.00
2019-03-19T05:55:51.336Z,17.37
2019-03-19T05:58:19.791Z,20.15
2019-03-19T06:00:48.142Z,19.12
2019-03-19T06:03:16.875Z,18.50
2019-03-19T06:05:45.089Z,14.87
2019-03-19T06:08:13.430Z,12.40
2019-03-19T06:10:42.874Z,9.23
2019-03-19T06:13:11.463Z,12.23
2019-03-19T06:15:40.029Z,12.63
2019-03-19T06:18:08.345Z,19.35
2019-03-19T06:20:36.630Z,15.70
2019-03-19T06:23:05.296Z,13.60
2019-03-19T06:25:34.750Z,20.30
2019-03-19T06:28:03.235Z,16.05
2019-03-19T06:30:31.738Z,23.18
2019-03-19T06:33:00.184Z,25.43
2019-03-19T06:35:28.628Z,18.37
2019-03-19T06:37:57.310Z,21.70
2019-03-19T06:40:25.702Z,13.48
2019-03-19T06:42:54.138Z,15.48
2019-03-19T06:45:23.176Z,15.25
2019-03-19T06:47:52.001Z,20.55
2019-03-19T06:50:20.978Z,15.13
2019-03-19T06:52:49.338Z,11.38
2019-03-19T06:55:21.084Z,11.68
2019-03-19T06:57:49.542Z,11.18
2019-03-19T07:00:18.783Z,11.12
2019-03-19T07:02:47.124Z,11.55
2019-03-19T07:05:16.734Z,11.10
2019-03-19T07:07:45.451Z,9.23
2019-03-19T07:10:15.809Z,12.13
2019-03-19T07:12:44.346Z,19.42
2019-03-19T07:15:18.958Z,16.35
2019-03-19T07:17:47.248Z,13.40
2019-03-19T07:20:22.988Z,12.15
2019-03-19T07:22:51.318Z,13.78
2019-03-19T07:25:20.848Z,12.13
2019-03-19T07:27:49.135Z,20.00
2019-03-19T07:30:20.948Z,11.15
2019-03-19T07:32:49.204Z,10.78
2019-03-19T07:35:17.672Z,9.10
2019-03-19T07:37:46.045Z,11.43
2019-03-19T07:40:15.921Z,8.25
2019-03-19T07:42:44.304Z,13.85
2019-03-19T07:45:14.757Z,10.45
2019-03-19T07:47:44.440Z,11.70
2019-03-19T07:50:17.935Z,9.25
2019-03-19T07:52:48.292Z,13.40
2019-03-19T07:55:16.701Z,14.53
2019-03-19T07:57:45.198Z,13.48
2019-03-19T08:00:20.219Z,12.75
2019-03-19T08:02:48.699Z,9.65
2019-03-19T08:05:17.169Z,11.15
2019-03-19T08:07:45.581Z,11.28
2019-03-19T08:10:16.150Z,13.28
2019-03-19T08:12:44.876Z,10.40
2019-03-19T08:15:14.771Z,16.48
2019-03-19T08:17:43.343Z,10.00
2019-03-19T08:20:16.994Z,11.97
2019-03-19T08:22:46.143Z,10.93
2019-03-19T08:25:15.359Z,9.53
2019-03-19T08:27:43.636Z,14.07
2019-03-19T08:30:17.077Z,11.50
2019-03-19T08:32:45.603Z,9.80
2019-03-19T08:35:14.491Z,13.68
2019-03-19T08:37:42.805Z,12.40
2019-03-19T08:40:13.575Z,10.98
2019-03-19T08:42:42.487Z,10.55
2019-03-19T08:45:21.784Z,15.25
2019-03-19T08:47:50.102Z,12.50
2019-03-19T08:50:21.145Z,11.83
2019-03-19T08:52:49.504Z,17.85
2019-03-19T08:55:17.842Z,21.00
2019-03-19T08:57:46.108Z,12.60
2019-03-19T09:00:20.963Z,14.35
2019-03-19T09:02:49.285Z,13.28
2019-03-19T09:05:17.636Z,9.65
2019-03-19T09:07:46.032Z,12.07
2019-03-19T09:10:18.501Z,10.88
2019-03-19T09:12:48.764Z,9.85
2019-03-19T09:15:28.359Z,10.15
2019-03-19T09:17:57.032Z,9.03
2019-03-19T09:20:25.403Z,11.85
2019-03-19T09:22:53.905Z,8.60
2019-03-19T09:25:22.321Z,8.75
2019-03-19T09:27:50.761Z,10.35
2019-03-19T09:30:21.178Z,10.68
2019-03-19T09:32:49.566Z,9.63
2019-03-19T09:35:18.004Z,11.25
2019-03-19T09:37:57.685Z,7.22
2019-03-19T09:40:17.939Z,10.38
2019-03-19T09:42:46.191Z,5.30
2019-03-19T09:45:18.041Z,11.08
2019-03-19T09:47:46.766Z,9.50
2019-03-19T09:50:17.743Z,10.08
2019-03-19T09:52:46.125Z,7.40
2019-03-19T09:55:14.656Z,9.03
2019-03-19T09:57:43.253Z,10.40
2019-03-19T10:00:19.625Z,12.88
2019-03-19T10:02:48.171Z,8.35
2019-03-19T10:05:16.603Z,10.80
2019-03-19T10:07:45.371Z,7.58
2019-03-19T10:10:21.565Z,9.03
2019-03-19T10:12:50.016Z,10.13
2019-03-19T10:15:18.742Z,11.80
2019-03-19T10:17:49.870Z,12.45
2019-03-19T10:20:19.494Z,14.28
2019-03-19T10:22:47.933Z,10.13
2019-03-19T10:25:16.699Z,14.65
2019-03-19T10:27:44.998Z,10.18
2019-03-19T10:30:19.992Z,12.75
2019-03-19T10:32:48.225Z,8.63
2019-03-19T10:35:16.892Z,11.25
2019-03-19T10:37:45.326Z,8.88
2019-03-19T10:40:16.862Z,9.03
2019-03-19T10:42:45.524Z,7.33
2019-03-19T10:45:24.307Z,10.00
2019-03-19T10:47:52.836Z,10.15
2019-03-19T10:50:28.099Z,13.13
2019-03-19T10:52:57.075Z,12.93
2019-03-19T10:55:25.543Z,10.30
2019-03-19T10:57:54.452Z,10.53
2019-03-19T11:00:26.839Z,10.70
2019-03-19T11:02:55.174Z,10.82
2019-03-19T11:05:24.446Z,6.47
2019-03-19T11:07:53.025Z,9.40
2019-03-19T11:10:21.386Z,8.40
2019-03-19T11:12:49.806Z,9.58
2019-03-19T11:15:22.917Z,5.20
2019-03-19T11:17:51.269Z,10.68
2019-03-19T11:20:20.316Z,6.50
2019-03-19T11:22:49.007Z,5.97
2019-03-19T11:25:24.895Z,7.37
2019-03-19T11:27:53.209Z,10.32
2019-03-19T11:30:23.108Z,6.50
2019-03-19T11:32:51.523Z,7.87
2019-03-19T11:35:20.052Z,8.20
2019-03-19T11:37:49.018Z,9.28
2019-03-19T11:40:18.204Z,9.13
2019-03-19T11:42:46.867Z,7.20
2019-03-19T11:45:23.259Z,9.48
2019-03-19T11:47:51.701Z,17.27
2019-03-19T11:50:24.571Z,9.93
2019-03-19T11:52:52.951Z,8.10
2019-03-19T11:55:21.232Z,9.73
2019-03-19T11:57:49.976Z,5.20
2019-03-19T12:00:43.774Z,5.97
2019-03-19T12:03:16.181Z,6.45
2019-03-19T12:05:42.381Z,9.90
2019-03-19T12:08:10.955Z,8.10
2019-03-19T12:10:39.253Z,8.15
2019-03-19T12:13:07.641Z,7.05
2019-03-19T12:15:36.159Z,10.63
2019-03-19T12:18:05.287Z,9.98
2019-03-19T12:20:33.759Z,5.70
2019-03-19T12:23:02.329Z,10.00
2019-03-19T12:25:31.322Z,6.33
2019-03-19T12:28:00.292Z,6.80
2019-03-19T12:30:28.674Z,10.00
2019-03-19T12:32:57.133Z,4.47
2019-03-19T12:35:25.393Z,9.50
2019-03-19T12:37:53.707Z,7.05
2019-03-19T12:40:23.205Z,7.42
2019-03-19T12:42:51.595Z,11.97
2019-03-19T12:45:24.083Z,4.87
2019-03-19T12:47:52.496Z,4.45
2019-03-19T12:50:22.155Z,7.40
2019-03-19T12:52:53.354Z,7.83
2019-03-19T12:55:21.935Z,8.08
2019-03-19T12:57:50.377Z,6.78
2019-03-19T13:00:34.221Z,14.23
2019-03-19T13:02:56.007Z,7.95
2019-03-19T13:05:24.370Z,7.85
2019-03-19T13:07:54.230Z,9.53
2019-03-19T13:10:24.499Z,9.15
2019-03-19T13:12:53.797Z,5.70
2019-03-19T13:15:22.354Z,7.83
2019-03-19T13:17:53.504Z,7.62
2019-03-19T13:20:25.652Z,6.83
2019-03-19T13:22:54.231Z,6.28
2019-03-19T13:25:24.675Z,9.68
2019-03-19T13:27:56.113Z,9.80
2019-03-19T13:30:28.526Z,5.80
2019-03-19T13:32:57.193Z,8.33
2019-03-19T13:35:25.785Z,9.60
2019-03-19T13:37:54.848Z,12.00
2019-03-19T13:40:23.547Z,6.83
2019-03-19T13:42:51.875Z,10.95
2019-03-19T13:45:21.371Z,7.25
2019-03-19T13:47:49.760Z,6.35
2019-03-19T13:50:18.920Z,5.78
2019-03-19T13:52:47.474Z,9.73
2019-03-19T13:55:20.131Z,9.50
2019-03-19T13:57:48.720Z,9.35
2019-03-19T14:00:17.716Z,7.90
2019-03-19T14:02:46.197Z,15.48
2019-03-19T14:05:15.176Z,7.25
2019-03-19T14:07:43.650Z,9.00
2019-03-19T14:10:16.839Z,8.25
2019-03-19T14:12:45.410Z,9.30
2019-03-19T14:15:17.115Z,11.68
2019-03-19T14:17:59.815Z,9.93
2019-03-19T14:20:28.280Z,11.68
2019-03-19T14:22:56.674Z,7.55
2019-03-19T14:25:25.024Z,11.00
2019-03-19T14:27:53.583Z,8.80
2019-03-19T14:30:22.985Z,9.48
2019-03-19T14:32:51.329Z,5.90
2019-03-19T14:35:19.685Z,10.90
2019-03-19T14:37:48.412Z,14.55
2019-03-19T14:40:20.798Z,14.03
2019-03-19T14:42:49.163Z,10.60
2019-03-19T14:45:17.719Z,10.50
2019-03-19T14:47:46.057Z,7.33
2019-03-19T14:50:20.614Z,8.83
2019-03-19T14:52:48.960Z,12.63
2019-03-19T14:55:17.532Z,8.88
2019-03-19T14:57:46.044Z,13.83
2019-03-19T15:00:21.921Z,10.98
2019-03-19T15:02:50.420Z,6.72
2019-03-19T15:05:24.125Z,11.08
2019-03-19T15:07:52.460Z,11.08
2019-03-19T15:10:24.105Z,13.48
2019-03-19T15:12:52.459Z,7.55
2019-03-19T15:15:21.745Z,9.75
2019-03-19T15:17:50.088Z,11.97
2019-03-19T15:20:21.751Z,8.58
2019-03-19T15:22:50.086Z,12.30
2019-03-19T15:25:18.448Z,17.67
2019-03-19T15:27:46.823Z,12.28
2019-03-19T15:30:19.429Z,16.05
2019-03-19T15:32:47.728Z,14.35
2019-03-19T15:35:17.716Z,23.40
2019-03-19T15:37:46.110Z,16.12
2019-03-19T15:40:17.458Z,17.55
2019-03-19T15:42:49.556Z,14.50
2019-03-19T15:45:30.544Z,14.20
2019-03-19T15:47:58.832Z,15.78
2019-03-19T15:50:27.126Z,350.57
2019-03-19T15:52:55.827Z,189.85
2019-03-19T15:55:24.464Z,46.33
2019-03-19T15:57:52.931Z,34.45
2019-03-19T16:00:21.773Z,21.50
2019-03-19T16:02:50.093Z,21.52
2019-03-19T16:05:18.366Z,16.60
2019-03-19T16:07:46.737Z,22.37
2019-03-19T16:10:16.218Z,19.07
2019-03-19T16:12:44.484Z,22.30
2019-03-19T16:15:15.397Z,16.90
2019-03-19T16:17:43.722Z,32.63
2019-03-19T16:20:17.004Z,19.05
2019-03-19T16:22:45.396Z,19.17
2019-03-19T16:25:13.751Z,17.98
2019-03-19T16:27:42.061Z,27.55
2019-03-19T16:30:24.524Z,21.40
2019-03-19T16:32:52.868Z,19.25
2019-03-19T16:35:21.145Z,21.85
2019-03-19T16:37:49.525Z,19.40
2019-03-19T16:40:20.075Z,21.50
2019-03-19T16:42:48.512Z,29.67
2019-03-19T16:45:18.281Z,23.18
2019-03-19T16:50:16.133Z,16.35
2019-03-19T16:55:16.906Z,25.45
2019-03-19T16:57:46.547Z,22.25
2019-03-19T17:00:23.800Z,27.05
2019-03-19T17:02:52.174Z,27.25
2019-03-19T17:05:20.488Z,20.25
2019-03-19T17:07:48.770Z,15.08
2019-03-19T17:10:20.570Z,19.02
2019-03-19T17:12:48.928Z,21.93
2019-03-19T17:15:17.375Z,16.73
2019-03-19T17:17:46.030Z,13.40
2019-03-19T17:20:18.333Z,14.78
2019-03-19T17:22:47.000Z,18.73
2019-03-19T17:25:18.963Z,20.10
2019-03-19T17:27:57.162Z,18.87
2019-03-19T17:30:38.146Z,14.93
2019-03-19T17:33:06.472Z,23.57
2019-03-19T17:35:35.099Z,19.15
2019-03-19T17:38:03.681Z,33.33
2019-03-19T17:40:40.858Z,29.75
2019-03-19T17:43:02.694Z,29.12
2019-03-19T17:45:31.099Z,15.80
2019-03-19T17:47:59.511Z,10.38
2019-03-19T17:50:30.541Z,11.97
2019-03-19T17:52:59.069Z,10.13
2019-03-19T17:55:27.433Z,16.32
2019-03-19T17:57:56.412Z,15.38
2019-03-19T18:00:35.997Z,22.05
2019-03-19T18:03:10.965Z,18.15
2019-03-19T18:05:38.751Z,21.42
2019-03-19T18:08:07.101Z,13.90
2019-03-19T18:10:35.761Z,24.67
2019-03-19T18:13:06.463Z,18.62
2019-03-19T18:15:34.330Z,20.75
2019-03-19T18:18:03.682Z,16.17
2019-03-19T18:20:31.968Z,13.72
2019-03-19T18:23:00.392Z,16.15
2019-03-19T18:25:28.797Z,20.68
2019-03-19T18:27:57.372Z,23.05
2019-03-19T18:30:26.166Z,12.68
2019-03-19T18:32:54.537Z,18.07
2019-03-19T18:35:22.811Z,10.80
2019-03-19T18:37:51.069Z,22.05
2019-03-19T18:40:20.152Z,23.27
2019-03-19T18:42:48.579Z,29.13
2019-03-19T18:45:20.531Z,25.35
2019-03-19T18:47:48.818Z,36.13
2019-03-19T18:50:21.082Z,39.98
2019-03-19T18:52:49.375Z,38.38
2019-03-19T18:55:17.826Z,35.08
2019-03-19T18:57:46.570Z,40.20
2019-03-19T19:00:18.826Z,43.63
2019-03-19T19:02:50.053Z,38.60
2019-03-19T19:05:37.018Z,50.12
2019-03-19T19:07:53.303Z,45.45
2019-03-19T19:10:23.668Z,48.58
2019-03-19T19:12:52.054Z,45.65
2019-03-19T19:15:24.217Z,52.83
2019-03-19T19:17:52.621Z,46.40
2019-03-19T19:20:21.102Z,57.98
2019-03-19T19:22:52.447Z,56.28
2019-03-19T19:25:26.077Z,46.18
2019-03-19T19:27:54.467Z,49.98
2019-03-19T19:30:23.973Z,51.05
2019-03-19T19:33:00.973Z,51.48
2019-03-19T19:37:52.026Z,52.23
2019-03-19T19:40:20.795Z,54.33
2019-03-19T19:42:49.306Z,53.90
2019-03-19T19:45:18.635Z,59.38
2019-03-19T19:47:47.172Z,61.02
2019-03-19T19:50:19.658Z,53.95
2019-03-19T19:52:48.644Z,68.25
2019-03-19T19:55:17.093Z,65.23
2019-03-19T19:57:45.481Z,74.62
2019-03-19T20:00:18.826Z,73.47
2019-03-19T20:02:47.208Z,78.92
2019-03-19T20:05:15.677Z,79.60
2019-03-19T20:07:45.789Z,75.90
2019-03-19T20:10:20.326Z,64.90
2019-03-19T20:12:48.749Z,76.92
2019-03-19T20:15:17.036Z,74.60
2019-03-19T20:17:45.365Z,79.12
2019-03-19T20:20:16.042Z,73.45
2019-03-19T20:22:46.992Z,78.90
2019-03-19T20:25:15.570Z,79.25
2019-03-19T20:27:43.914Z,77.40
2019-03-19T20:30:21.247Z,67.40
2019-03-19T20:32:49.558Z,74.27
2019-03-19T20:35:17.967Z,82.00
2019-03-19T20:37:46.677Z,84.28
2019-03-19T20:40:16.114Z,84.10
2019-03-19T20:42:45.107Z,88.50
2019-03-19T20:45:15.867Z,101.60
2019-03-19T20:47:44.174Z,92.50
2019-03-19T20:50:24.507Z,86.75
2019-03-19T20:52:54.971Z,80.35
2019-03-19T20:55:23.782Z,86.32
2019-03-19T20:57:53.251Z,82.92
2019-03-19T21:00:26.162Z,90.62
2019-03-19T21:02:54.654Z,77.40
2019-03-19T21:05:22.993Z,75.15
2019-03-19T21:07:57.260Z,71.22
2019-03-19T21:10:25.773Z,67.08
2019-03-19T21:12:54.186Z,73.90
2019-03-19T21:15:27.148Z,62.55
2019-03-19T21:17:55.505Z,62.85
2019-03-19T21:20:23.985Z,60.38
2019-03-19T21:22:52.696Z,66.95
2019-03-19T21:25:21.071Z,64.95
2019-03-19T21:27:49.830Z,72.40
2019-03-19T21:30:21.084Z,79.12
2019-03-19T21:32:50.255Z,75.80
2019-03-19T21:35:23.556Z,75.10
2019-03-19T21:37:51.975Z,61.65
2019-03-19T21:40:20.450Z,64.67
2019-03-19T21:42:52.953Z,58.17
2019-03-19T21:45:22.263Z,61.95
2019-03-19T21:47:50.792Z,85.72
2019-03-19T21:50:23.395Z,81.12
2019-03-19T21:52:52.326Z,89.80
2019-03-19T21:55:20.670Z,119.77
2019-03-19T21:57:49.099Z,216.68
2019-03-19T22:00:27.333Z,93.58
2019-03-19T22:02:55.609Z,78.62
2019-03-19T22:05:24.069Z,104.58
2019-03-19T22:07:52.351Z,100.22
2019-03-19T22:10:27.225Z,78.78
2019-03-19T22:12:55.585Z,91.82
2019-03-19T22:15:25.839Z,96.72
2019-03-19T22:17:54.567Z,104.55
2019-03-19T22:20:25.694Z,93.55
2019-03-19T22:22:54.503Z,93.52
2019-03-19T22:25:23.356Z,96.65
2019-03-19T22:27:51.794Z,93.53
2019-03-19T22:30:21.042Z,83.12
2019-03-19T22:32:49.390Z,91.55
2019-03-19T22:35:17.842Z,87.30
2019-03-19T22:37:46.389Z,79.97
2019-03-19T22:40:18.553Z,84.55
2019-03-19T22:42:46.959Z,80.45
2019-03-19T22:45:16.243Z,88.12
2019-03-19T22:47:44.585Z,86.50
2019-03-19T22:50:17.044Z,78.87
2019-03-19T22:52:45.663Z,61.33
2019-03-19T22:55:14.928Z,71.30
2019-03-19T22:57:43.274Z,61.35
2019-03-19T23:00:27.116Z,55.67
2019-03-19T23:02:55.582Z,74.80
2019-03-19T23:05:23.963Z,71.00
2019-03-19T23:07:53.323Z,65.32
2019-03-19T23:10:21.885Z,74.03
2019-03-19T23:12:50.318Z,70.70
2019-03-19T23:15:18.744Z,82.35
2019-03-19T23:17:47.485Z,80.70
2019-03-19T23:20:15.804Z,75.10
2019-03-19T23:22:44.276Z,81.32
2019-03-19T23:25:12.918Z,78.20
2019-03-19T23:27:41.299Z,74.53
2019-03-19T23:30:12.848Z,72.85
2019-03-19T23:32:41.353Z,65.87
2019-03-19T23:35:09.720Z,62.27
2019-03-19T23:37:38.264Z,58.75
2019-03-19T23:40:10.361Z,55.43
2019-03-19T23:42:38.730Z,62.17
2019-03-19T23:45:10.719Z,58.50
2019-03-19T23:47:39.094Z,54.70
2019-03-19T23:50:14.569Z,55.43
2019-03-19T23:52:43.353Z,51.05
2019-03-19T23:55:12.135Z,50.50
2019-03-19T23:57:40.925Z,48.17
